sensor_id;sensor_type;location;lat;lon;timestamp;P1;durP1;ratioP1;P2;durP2;ratioP2
17739;SDS011;8990;33.226;-97.150;2023-05-07T00:00:07;2.78;;;2.13;;
17739;SDS011;8990;33.226;-97.150;2023-05-07T00:02:36;1.95;;;1.70;;
17739;SDS011;8990;33.226;-97.150;2023-05-07T00:05:06;1.20;;;1.20;;
17739;SDS011;8990;33.226;-97.150;2023-05-07T00:07:37;2.13;;;1.77;;
17739;SDS011;8990;33.226;-97.150;2023-05-07T00:10:06;1.70;;;1.23;;
17739;SDS011;8990;33.226;-97.150;2023-05-07T00:12:36;2.97;;;2.72;;
17739;SDS011;8990;33.226;-97.150;2023-05-07T00:15:05;1.73;;;1.60;;
17739;SDS011;8990;33.226;-97.150;2023-05-07T00:17:35;1.25;;;1.23;;
17739;SDS011;8990;33.226;-97.150;2023-05-07T00:20:04;1.95;;;1.55;;
17739;SDS011;8990;33.226;-97.150;2023-05-07T00:22:34;3.60;;;1.60;;
17739;SDS011;8990;33.226;-97.150;2023-05-07T00:25:06;1.13;;;1.13;;
17739;SDS011;8990;33.226;-97.150;2023-05-07T00:27:36;2.90;;;2.08;;
17739;SDS011;8990;33.226;-97.150;2023-05-07T00:30:05;5.43;;;2.40;;
17739;SDS011;8990;33.226;-97.150;2023-05-07T00:32:35;0.88;;;0.88;;
17739;SDS011;8990;33.226;-97.150;2023-05-07T00:35:06;2.58;;;2.38;;
17739;SDS011;8990;33.226;-97.150;2023-05-07T00:37:37;3.22;;;2.63;;
17739;SDS011;8990;33.226;-97.150;2023-05-07T00:40:07;2.10;;;1.48;;
17739;SDS011;8990;33.226;-97.150;2023-05-07T00:42:36;3.42;;;1.88;;
17739;SDS011;8990;33.226;-97.150;2023-05-07T00:45:05;0.93;;;0.93;;
17739;SDS011;8990;33.226;-97.150;2023-05-07T00:47:36;2.25;;;2.05;;
17739;SDS011;8990;33.226;-97.150;2023-05-07T00:50:09;2.13;;;1.25;;
17739;SDS011;8990;33.226;-97.150;2023-05-07T00:52:39;1.88;;;1.50;;
17739;SDS011;8990;33.226;-97.150;2023-05-07T00:55:09;1.17;;;1.05;;
17739;SDS011;8990;33.226;-97.150;2023-05-07T00:57:39;2.20;;;1.75;;
17739;SDS011;8990;33.226;-97.150;2023-05-07T01:00:09;3.45;;;1.88;;
17739;SDS011;8990;33.226;-97.150;2023-05-07T01:02:39;3.95;;;1.98;;
17739;SDS011;8990;33.226;-97.150;2023-05-07T01:05:09;1.92;;;1.83;;
17739;SDS011;8990;33.226;-97.150;2023-05-07T01:07:40;1.13;;;1.10;;
17739;SDS011;8990;33.226;-97.150;2023-05-07T01:10:11;1.05;;;1.02;;
17739;SDS011;8990;33.226;-97.150;2023-05-07T01:12:40;1.88;;;1.50;;
17739;SDS011;8990;33.226;-97.150;2023-05-07T01:15:10;1.63;;;1.55;;
17739;SDS011;8990;33.226;-97.150;2023-05-07T01:17:39;1.30;;;1.23;;
17739;SDS011;8990;33.226;-97.150;2023-05-07T01:20:19;2.75;;;2.33;;
17739;SDS011;8990;33.226;-97.150;2023-05-07T01:22:54;6.28;;;1.35;;
17739;SDS011;8990;33.226;-97.150;2023-05-07T01:25:25;7.88;;;2.95;;
17739;SDS011;8990;33.226;-97.150;2023-05-07T01:27:58;1.55;;;1.40;;
17739;SDS011;8990;33.226;-97.150;2023-05-07T01:30:30;1.83;;;1.73;;
17739;SDS011;8990;33.226;-97.150;2023-05-07T01:33:04;7.00;;;2.83;;
17739;SDS011;8990;33.226;-97.150;2023-05-07T01:35:37;3.67;;;2.40;;
17739;SDS011;8990;33.226;-97.150;2023-05-07T01:38:10;3.40;;;1.30;;
17739;SDS011;8990;33.226;-97.150;2023-05-07T01:40:39;3.80;;;2.28;;
17739;SDS011;8990;33.226;-97.150;2023-05-07T01:43:08;1.33;;;1.25;;
17739;SDS011;8990;33.226;-97.150;2023-05-07T01:45:39;10.77;;;2.75;;
17739;SDS011;8990;33.226;-97.150;2023-05-07T01:48:10;0.85;;;0.85;;
17739;SDS011;8990;33.226;-97.150;2023-05-07T01:50:40;3.38;;;1.92;;
17739;SDS011;8990;33.226;-97.150;2023-05-07T01:53:12;2.65;;;2.35;;
17739;SDS011;8990;33.226;-97.150;2023-05-07T01:55:41;3.85;;;2.47;;
17739;SDS011;8990;33.226;-97.150;2023-05-07T01:58:10;2.58;;;2.35;;
17739;SDS011;8990;33.226;-97.150;2023-05-07T02:00:39;2.95;;;1.65;;
17739;SDS011;8990;33.226;-97.150;2023-05-07T02:03:09;2.75;;;1.40;;
17739;SDS011;8990;33.226;-97.150;2023-05-07T02:05:45;2.97;;;1.98;;
17739;SDS011;8990;33.226;-97.150;2023-05-07T02:08:36;1.63;;;1.52;;
17739;SDS011;8990;33.226;-97.150;2023-05-07T02:11:05;3.80;;;2.97;;
17739;SDS011;8990;33.226;-97.150;2023-05-07T02:13:35;3.55;;;1.73;;
17739;SDS011;8990;33.226;-97.150;2023-05-07T02:16:05;3.70;;;1.38;;
17739;SDS011;8990;33.226;-97.150;2023-05-07T02:18:34;2.08;;;1.88;;
17739;SDS011;8990;33.226;-97.150;2023-05-07T02:21:04;0.90;;;0.90;;
17739;SDS011;8990;33.226;-97.150;2023-05-07T02:23:32;0.40;;;0.40;;
17739;SDS011;8990;33.226;-97.150;2023-05-07T02:26:04;0.47;;;0.47;;
17739;SDS011;8990;33.226;-97.150;2023-05-07T02:28:33;1.00;;;0.52;;
17739;SDS011;8990;33.226;-97.150;2023-05-07T02:31:04;0.00;;;0.00;;
17739;SDS011;8990;33.226;-97.150;2023-05-07T02:33:34;0.35;;;0.15;;
17739;SDS011;8990;33.226;-97.150;2023-05-07T02:36:06;0.00;;;0.00;;
17739;SDS011;8990;33.226;-97.150;2023-05-07T02:38:41;0.75;;;0.30;;
17739;SDS011;8990;33.226;-97.150;2023-05-07T02:41:12;0.30;;;0.30;;
17739;SDS011;8990;33.226;-97.150;2023-05-07T02:43:41;0.47;;;0.47;;
17739;SDS011;8990;33.226;-97.150;2023-05-07T02:46:10;0.80;;;0.80;;
17739;SDS011;8990;33.226;-97.150;2023-05-07T02:48:43;0.70;;;0.70;;
17739;SDS011;8990;33.226;-97.150;2023-05-07T02:51:12;0.50;;;0.50;;
17739;SDS011;8990;33.226;-97.150;2023-05-07T02:53:42;0.20;;;0.20;;
17739;SDS011;8990;33.226;-97.150;2023-05-07T02:56:13;0.50;;;0.50;;
17739;SDS011;8990;33.226;-97.150;2023-05-07T02:58:42;0.28;;;0.28;;
17739;SDS011;8990;33.226;-97.150;2023-05-07T03:01:12;0.57;;;0.35;;
17739;SDS011;8990;33.226;-97.150;2023-05-07T03:03:49;0.30;;;0.30;;
17739;SDS011;8990;33.226;-97.150;2023-05-07T03:06:18;0.30;;;0.30;;
17739;SDS011;8990;33.226;-97.150;2023-05-07T03:08:47;0.60;;;0.60;;
17739;SDS011;8990;33.226;-97.150;2023-05-07T03:11:17;9.40;;;1.25;;
17739;SDS011;8990;33.226;-97.150;2023-05-07T03:13:46;0.30;;;0.30;;
17739;SDS011;8990;33.226;-97.150;2023-05-07T03:16:17;0.77;;;0.75;;
17739;SDS011;8990;33.226;-97.150;2023-05-07T03:18:46;0.60;;;0.55;;
17739;SDS011;8990;33.226;-97.150;2023-05-07T03:21:15;0.47;;;0.43;;
17739;SDS011;8990;33.226;-97.150;2023-05-07T03:23:44;0.35;;;0.35;;
17739;SDS011;8990;33.226;-97.150;2023-05-07T03:26:13;0.00;;;0.00;;
17739;SDS011;8990;33.226;-97.150;2023-05-07T03:28:46;0.17;;;0.17;;
17739;SDS011;8990;33.226;-97.150;2023-05-07T03:31:16;0.10;;;0.10;;
17739;SDS011;8990;33.226;-97.150;2023-05-07T03:33:52;0.10;;;0.10;;
17739;SDS011;8990;33.226;-97.150;2023-05-07T03:36:23;0.10;;;0.10;;
17739;SDS011;8990;33.226;-97.150;2023-05-07T03:38:53;0.00;;;0.00;;
17739;SDS011;8990;33.226;-97.150;2023-05-07T03:41:25;0.98;;;0.50;;
17739;SDS011;8990;33.226;-97.150;2023-05-07T03:43:57;0.85;;;0.30;;
17739;SDS011;8990;33.226;-97.150;2023-05-07T03:46:26;0.10;;;0.10;;
17739;SDS011;8990;33.226;-97.150;2023-05-07T03:48:55;0.15;;;0.15;;
17739;SDS011;8990;33.226;-97.150;2023-05-07T03:51:24;0.28;;;0.28;;
17739;SDS011;8990;33.226;-97.150;2023-05-07T03:53:53;0.32;;;0.32;;
17739;SDS011;8990;33.226;-97.150;2023-05-07T03:56:23;0.05;;;0.05;;
17739;SDS011;8990;33.226;-97.150;2023-05-07T03:58:57;0.00;;;0.00;;
17739;SDS011;8990;33.226;-97.150;2023-05-07T04:01:26;0.00;;;0.00;;
17739;SDS011;8990;33.226;-97.150;2023-05-07T04:03:56;0.40;;;0.40;;
17739;SDS011;8990;33.226;-97.150;2023-05-07T04:06:26;0.30;;;0.30;;
17739;SDS011;8990;33.226;-97.150;2023-05-07T04:08:55;1.10;;;0.52;;
17739;SDS011;8990;33.226;-97.150;2023-05-07T04:11:25;3.72;;;0.80;;
17739;SDS011;8990;33.226;-97.150;2023-05-07T04:13:54;0.20;;;0.20;;
17739;SDS011;8990;33.226;-97.150;2023-05-07T04:16:25;0.43;;;0.43;;
17739;SDS011;8990;33.226;-97.150;2023-05-07T04:18:53;0.10;;;0.10;;
17739;SDS011;8990;33.226;-97.150;2023-05-07T04:21:23;0.30;;;0.30;;
17739;SDS011;8990;33.226;-97.150;2023-05-07T04:23:52;0.10;;;0.10;;
17739;SDS011;8990;33.226;-97.150;2023-05-07T04:26:21;0.52;;;0.52;;
17739;SDS011;8990;33.226;-97.150;2023-05-07T04:28:50;0.20;;;0.20;;
17739;SDS011;8990;33.226;-97.150;2023-05-07T04:31:21;0.30;;;0.30;;
17739;SDS011;8990;33.226;-97.150;2023-05-07T04:33:53;0.35;;;0.35;;
17739;SDS011;8990;33.226;-97.150;2023-05-07T04:36:22;0.10;;;0.10;;
17739;SDS011;8990;33.226;-97.150;2023-05-07T04:38:59;0.68;;;0.60;;
17739;SDS011;8990;33.226;-97.150;2023-05-07T04:41:28;0.20;;;0.20;;
17739;SDS011;8990;33.226;-97.150;2023-05-07T04:43:57;0.22;;;0.17;;
17739;SDS011;8990;33.226;-97.150;2023-05-07T04:46:31;0.43;;;0.43;;
17739;SDS011;8990;33.226;-97.150;2023-05-07T04:49:00;0.13;;;0.13;;
17739;SDS011;8990;33.226;-97.150;2023-05-07T04:51:30;0.57;;;0.57;;
17739;SDS011;8990;33.226;-97.150;2023-05-07T04:53:59;0.10;;;0.10;;
17739;SDS011;8990;33.226;-97.150;2023-05-07T04:56:30;0.20;;;0.20;;
17739;SDS011;8990;33.226;-97.150;2023-05-07T04:59:00;0.10;;;0.10;;
17739;SDS011;8990;33.226;-97.150;2023-05-07T05:01:32;0.10;;;0.10;;
17739;SDS011;8990;33.226;-97.150;2023-05-07T05:04:01;0.17;;;0.17;;
17739;SDS011;8990;33.226;-97.150;2023-05-07T05:06:30;0.30;;;0.30;;
17739;SDS011;8990;33.226;-97.150;2023-05-07T05:09:01;0.22;;;0.22;;
17739;SDS011;8990;33.226;-97.150;2023-05-07T05:11:31;0.28;;;0.28;;
17739;SDS011;8990;33.226;-97.150;2023-05-07T05:14:00;2.88;;;0.73;;
17739;SDS011;8990;33.226;-97.150;2023-05-07T05:16:32;0.32;;;0.32;;
17739;SDS011;8990;33.226;-97.150;2023-05-07T05:19:01;0.20;;;0.20;;
17739;SDS011;8990;33.226;-97.150;2023-05-07T05:21:34;0.13;;;0.13;;
17739;SDS011;8990;33.226;-97.150;2023-05-07T05:24:07;0.13;;;0.10;;
17739;SDS011;8990;33.226;-97.150;2023-05-07T05:26:36;0.45;;;0.45;;
17739;SDS011;8990;33.226;-97.150;2023-05-07T05:29:05;0.98;;;0.63;;
17739;SDS011;8990;33.226;-97.150;2023-05-07T05:31:36;0.30;;;0.30;;
17739;SDS011;8990;33.226;-97.150;2023-05-07T05:34:05;0.40;;;0.40;;
17739;SDS011;8990;33.226;-97.150;2023-05-07T05:36:34;0.20;;;0.20;;
17739;SDS011;8990;33.226;-97.150;2023-05-07T05:39:04;0.17;;;0.17;;
17739;SDS011;8990;33.226;-97.150;2023-05-07T05:41:34;0.10;;;0.10;;
17739;SDS011;8990;33.226;-97.150;2023-05-07T05:44:04;0.10;;;0.10;;
17739;SDS011;8990;33.226;-97.150;2023-05-07T05:46:33;0.03;;;0.03;;
17739;SDS011;8990;33.226;-97.150;2023-05-07T05:49:06;0.13;;;0.13;;
17739;SDS011;8990;33.226;-97.150;2023-05-07T05:51:35;3.75;;;0.82;;
17739;SDS011;8990;33.226;-97.150;2023-05-07T05:54:04;0.17;;;0.17;;
17739;SDS011;8990;33.226;-97.150;2023-05-07T05:56:33;0.70;;;0.45;;
17739;SDS011;8990;33.226;-97.150;2023-05-07T05:59:02;0.00;;;0.00;;
17739;SDS011;8990;33.226;-97.150;2023-05-07T06:01:31;0.13;;;0.13;;
17739;SDS011;8990;33.226;-97.150;2023-05-07T06:04:04;0.28;;;0.28;;
17739;SDS011;8990;33.226;-97.150;2023-05-07T06:06:33;0.38;;;0.38;;
17739;SDS011;8990;33.226;-97.150;2023-05-07T06:09:02;0.30;;;0.30;;
17739;SDS011;8990;33.226;-97.150;2023-05-07T06:11:37;0.00;;;0.00;;
17739;SDS011;8990;33.226;-97.150;2023-05-07T06:14:07;0.65;;;0.30;;
17739;SDS011;8990;33.226;-97.150;2023-05-07T06:16:36;0.00;;;0.00;;
17739;SDS011;8990;33.226;-97.150;2023-05-07T06:19:08;0.25;;;0.25;;
17739;SDS011;8990;33.226;-97.150;2023-05-07T06:21:39;0.13;;;0.03;;
17739;SDS011;8990;33.226;-97.150;2023-05-07T06:24:09;5.28;;;0.43;;
17739;SDS011;8990;33.226;-97.150;2023-05-07T06:26:38;0.20;;;0.20;;
17739;SDS011;8990;33.226;-97.150;2023-05-07T06:29:07;0.00;;;0.00;;
17739;SDS011;8990;33.226;-97.150;2023-05-07T06:31:38;0.00;;;0.00;;
17739;SDS011;8990;33.226;-97.150;2023-05-07T06:34:10;0.38;;;0.38;;
17739;SDS011;8990;33.226;-97.150;2023-05-07T06:36:41;0.10;;;0.10;;
17739;SDS011;8990;33.226;-97.150;2023-05-07T06:39:30;3.30;;;0.65;;
17739;SDS011;8990;33.226;-97.150;2023-05-07T06:42:00;0.17;;;0.17;;
17739;SDS011;8990;33.226;-97.150;2023-05-07T06:44:32;0.10;;;0.10;;
17739;SDS011;8990;33.226;-97.150;2023-05-07T06:47:07;0.00;;;0.00;;
17739;SDS011;8990;33.226;-97.150;2023-05-07T06:49:40;0.20;;;0.20;;
17739;SDS011;8990;33.226;-97.150;2023-05-07T06:52:09;0.15;;;0.13;;
17739;SDS011;8990;33.226;-97.150;2023-05-07T06:54:38;0.10;;;0.10;;
17739;SDS011;8990;33.226;-97.150;2023-05-07T06:57:07;0.30;;;0.17;;
17739;SDS011;8990;33.226;-97.150;2023-05-07T06:59:36;0.32;;;0.32;;
17739;SDS011;8990;33.226;-97.150;2023-05-07T07:02:05;0.00;;;0.00;;
17739;SDS011;8990;33.226;-97.150;2023-05-07T07:04:35;0.00;;;0.00;;
17739;SDS011;8990;33.226;-97.150;2023-05-07T07:07:10;0.03;;;0.03;;
17739;SDS011;8990;33.226;-97.150;2023-05-07T07:09:41;0.40;;;0.40;;
17739;SDS011;8990;33.226;-97.150;2023-05-07T07:12:10;0.50;;;0.50;;
17739;SDS011;8990;33.226;-97.150;2023-05-07T07:14:41;0.10;;;0.10;;
17739;SDS011;8990;33.226;-97.150;2023-05-07T07:17:10;0.20;;;0.20;;
17739;SDS011;8990;33.226;-97.150;2023-05-07T07:19:39;0.68;;;0.68;;
17739;SDS011;8990;33.226;-97.150;2023-05-07T07:22:10;0.15;;;0.15;;
17739;SDS011;8990;33.226;-97.150;2023-05-07T07:24:39;0.00;;;0.00;;
17739;SDS011;8990;33.226;-97.150;2023-05-07T07:27:10;0.32;;;0.30;;
17739;SDS011;8990;33.226;-97.150;2023-05-07T07:29:39;0.22;;;0.22;;
17739;SDS011;8990;33.226;-97.150;2023-05-07T07:32:08;0.20;;;0.20;;
17739;SDS011;8990;33.226;-97.150;2023-05-07T07:34:38;0.47;;;0.47;;
17739;SDS011;8990;33.226;-97.150;2023-05-07T07:37:07;0.47;;;0.47;;
17739;SDS011;8990;33.226;-97.150;2023-05-07T07:39:38;0.22;;;0.22;;
17739;SDS011;8990;33.226;-97.150;2023-05-07T07:42:08;6.53;;;0.75;;
17739;SDS011;8990;33.226;-97.150;2023-05-07T07:44:38;0.28;;;0.28;;
17739;SDS011;8990;33.226;-97.150;2023-05-07T07:47:09;0.17;;;0.15;;
17739;SDS011;8990;33.226;-97.150;2023-05-07T07:49:40;0.30;;;0.30;;
17739;SDS011;8990;33.226;-97.150;2023-05-07T07:52:11;0.20;;;0.20;;
17739;SDS011;8990;33.226;-97.150;2023-05-07T07:54:42;0.30;;;0.30;;
17739;SDS011;8990;33.226;-97.150;2023-05-07T07:57:11;1.60;;;0.40;;
17739;SDS011;8990;33.226;-97.150;2023-05-07T07:59:41;0.45;;;0.45;;
17739;SDS011;8990;33.226;-97.150;2023-05-07T08:02:11;0.10;;;0.10;;
17739;SDS011;8990;33.226;-97.150;2023-05-07T08:04:40;0.52;;;0.38;;
17739;SDS011;8990;33.226;-97.150;2023-05-07T08:07:11;2.83;;;0.60;;
17739;SDS011;8990;33.226;-97.150;2023-05-07T08:09:45;0.10;;;0.10;;
17739;SDS011;8990;33.226;-97.150;2023-05-07T08:12:16;0.10;;;0.10;;
17739;SDS011;8990;33.226;-97.150;2023-05-07T08:14:45;0.10;;;0.10;;
17739;SDS011;8990;33.226;-97.150;2023-05-07T08:17:14;0.38;;;0.38;;
17739;SDS011;8990;33.226;-97.150;2023-05-07T08:19:44;0.40;;;0.20;;
17739;SDS011;8990;33.226;-97.150;2023-05-07T08:22:16;0.08;;;0.08;;
17739;SDS011;8990;33.226;-97.150;2023-05-07T08:24:45;0.28;;;0.20;;
17739;SDS011;8990;33.226;-97.150;2023-05-07T08:27:14;1.50;;;0.65;;
17739;SDS011;8990;33.226;-97.150;2023-05-07T08:29:43;0.30;;;0.30;;
17739;SDS011;8990;33.226;-97.150;2023-05-07T08:32:16;0.30;;;0.20;;
17739;SDS011;8990;33.226;-97.150;2023-05-07T08:34:45;5.28;;;0.32;;
17739;SDS011;8990;33.226;-97.150;2023-05-07T08:37:17;0.57;;;0.43;;
17739;SDS011;8990;33.226;-97.150;2023-05-07T08:39:46;0.05;;;0.05;;
17739;SDS011;8990;33.226;-97.150;2023-05-07T08:42:20;1.13;;;1.10;;
17739;SDS011;8990;33.226;-97.150;2023-05-07T08:44:51;0.47;;;0.45;;
17739;SDS011;8990;33.226;-97.150;2023-05-07T08:47:24;0.30;;;0.30;;
17739;SDS011;8990;33.226;-97.150;2023-05-07T08:49:59;0.80;;;0.40;;
17739;SDS011;8990;33.226;-97.150;2023-05-07T08:52:31;0.38;;;0.38;;
17739;SDS011;8990;33.226;-97.150;2023-05-07T08:55:01;0.10;;;0.10;;
17739;SDS011;8990;33.226;-97.150;2023-05-07T08:57:32;0.28;;;0.28;;
17739;SDS011;8990;33.226;-97.150;2023-05-07T09:00:02;0.35;;;0.17;;
17739;SDS011;8990;33.226;-97.150;2023-05-07T09:02:35;0.10;;;0.10;;
17739;SDS011;8990;33.226;-97.150;2023-05-07T09:05:05;0.10;;;0.10;;
17739;SDS011;8990;33.226;-97.150;2023-05-07T09:07:37;0.20;;;0.20;;
17739;SDS011;8990;33.226;-97.150;2023-05-07T09:10:08;0.00;;;0.00;;
17739;SDS011;8990;33.226;-97.150;2023-05-07T09:12:39;0.10;;;0.10;;
17739;SDS011;8990;33.226;-97.150;2023-05-07T09:15:10;0.25;;;0.25;;
17739;SDS011;8990;33.226;-97.150;2023-05-07T09:17:40;0.10;;;0.10;;
17739;SDS011;8990;33.226;-97.150;2023-05-07T09:20:10;0.43;;;0.43;;
17739;SDS011;8990;33.226;-97.150;2023-05-07T09:22:41;0.00;;;0.00;;
17739;SDS011;8990;33.226;-97.150;2023-05-07T09:25:14;0.38;;;0.28;;
17739;SDS011;8990;33.226;-97.150;2023-05-07T09:27:43;0.00;;;0.00;;
17739;SDS011;8990;33.226;-97.150;2023-05-07T09:30:12;0.10;;;0.10;;
17739;SDS011;8990;33.226;-97.150;2023-05-07T09:32:41;0.57;;;0.57;;
17739;SDS011;8990;33.226;-97.150;2023-05-07T09:35:16;0.77;;;0.55;;
17739;SDS011;8990;33.226;-97.150;2023-05-07T09:37:54;0.40;;;0.30;;
17739;SDS011;8990;33.226;-97.150;2023-05-07T09:40:26;0.22;;;0.22;;
17739;SDS011;8990;33.226;-97.150;2023-05-07T09:43:08;0.93;;;0.17;;
17739;SDS011;8990;33.226;-97.150;2023-05-07T09:45:41;0.32;;;0.32;;
17739;SDS011;8990;33.226;-97.150;2023-05-07T09:48:12;0.17;;;0.17;;
17739;SDS011;8990;33.226;-97.150;2023-05-07T09:50:48;0.45;;;0.45;;
17739;SDS011;8990;33.226;-97.150;2023-05-07T09:53:24;0.00;;;0.00;;
17739;SDS011;8990;33.226;-97.150;2023-05-07T09:55:54;0.08;;;0.08;;
17739;SDS011;8990;33.226;-97.150;2023-05-07T09:58:26;0.22;;;0.22;;
17739;SDS011;8990;33.226;-97.150;2023-05-07T10:00:56;2.42;;;0.30;;
17739;SDS011;8990;33.226;-97.150;2023-05-07T10:03:25;0.05;;;0.05;;
17739;SDS011;8990;33.226;-97.150;2023-05-07T10:06:03;2.35;;;1.08;;
17739;SDS011;8990;33.226;-97.150;2023-05-07T10:08:34;0.35;;;0.35;;
17739;SDS011;8990;33.226;-97.150;2023-05-07T10:11:06;0.40;;;0.40;;
17739;SDS011;8990;33.226;-97.150;2023-05-07T10:13:35;0.20;;;0.20;;
17739;SDS011;8990;33.226;-97.150;2023-05-07T10:16:07;1.48;;;0.47;;
17739;SDS011;8990;33.226;-97.150;2023-05-07T10:18:43;0.13;;;0.13;;
17739;SDS011;8990;33.226;-97.150;2023-05-07T10:21:18;0.20;;;0.20;;
17739;SDS011;8990;33.226;-97.150;2023-05-07T10:23:58;0.43;;;0.43;;
17739;SDS011;8990;33.226;-97.150;2023-05-07T10:26:32;0.28;;;0.28;;
17739;SDS011;8990;33.226;-97.150;2023-05-07T10:29:05;0.30;;;0.30;;
17739;SDS011;8990;33.226;-97.150;2023-05-07T10:31:52;0.10;;;0.10;;
17739;SDS011;8990;33.226;-97.150;2023-05-07T10:34:28;0.45;;;0.10;;
17739;SDS011;8990;33.226;-97.150;2023-05-07T10:37:02;0.22;;;0.22;;
17739;SDS011;8990;33.226;-97.150;2023-05-07T10:39:33;0.30;;;0.30;;
17739;SDS011;8990;33.226;-97.150;2023-05-07T10:42:09;0.28;;;0.28;;
17739;SDS011;8990;33.226;-97.150;2023-05-07T10:44:43;0.30;;;0.30;;
17739;SDS011;8990;33.226;-97.150;2023-05-07T10:47:20;0.43;;;0.38;;
17739;SDS011;8990;33.226;-97.150;2023-05-07T11:05:43;0.20;;;0.20;;
17739;SDS011;8990;33.226;-97.150;2023-05-07T11:08:23;0.47;;;0.47;;
17739;SDS011;8990;33.226;-97.150;2023-05-07T11:10:59;0.73;;;0.73;;
17739;SDS011;8990;33.226;-97.150;2023-05-07T11:13:58;0.95;;;0.68;;
17739;SDS011;8990;33.226;-97.150;2023-05-07T11:16:44;0.52;;;0.52;;
17739;SDS011;8990;33.226;-97.150;2023-05-07T11:22:37;2.65;;;0.73;;
17739;SDS011;8990;33.226;-97.150;2023-05-07T11:25:32;0.28;;;0.28;;
17739;SDS011;8990;33.226;-97.150;2023-05-07T11:28:08;0.63;;;0.47;;
17739;SDS011;8990;33.226;-97.150;2023-05-07T11:30:46;2.08;;;0.85;;
17739;SDS011;8990;33.226;-97.150;2023-05-07T11:33:17;0.43;;;0.43;;
17739;SDS011;8990;33.226;-97.150;2023-05-07T11:35:50;0.10;;;0.10;;
17739;SDS011;8990;33.226;-97.150;2023-05-07T11:38:23;0.25;;;0.25;;
17739;SDS011;8990;33.226;-97.150;2023-05-07T11:40:54;0.17;;;0.17;;
17739;SDS011;8990;33.226;-97.150;2023-05-07T11:43:24;0.30;;;0.30;;
17739;SDS011;8990;33.226;-97.150;2023-05-07T11:45:58;0.52;;;0.52;;
17739;SDS011;8990;33.226;-97.150;2023-05-07T11:48:34;0.57;;;0.57;;
17739;SDS011;8990;33.226;-97.150;2023-05-07T11:51:03;0.57;;;0.57;;
17739;SDS011;8990;33.226;-97.150;2023-05-07T11:53:38;1.05;;;0.40;;
17739;SDS011;8990;33.226;-97.150;2023-05-07T11:56:08;0.55;;;0.55;;
17739;SDS011;8990;33.226;-97.150;2023-05-07T11:58:37;0.13;;;0.13;;
17739;SDS011;8990;33.226;-97.150;2023-05-07T12:01:09;0.25;;;0.25;;
17739;SDS011;8990;33.226;-97.150;2023-05-07T12:03:40;0.80;;;0.80;;
17739;SDS011;8990;33.226;-97.150;2023-05-07T12:06:10;0.57;;;0.57;;
17739;SDS011;8990;33.226;-97.150;2023-05-07T12:08:39;0.20;;;0.20;;
17739;SDS011;8990;33.226;-97.150;2023-05-07T12:11:09;2.60;;;1.02;;
17739;SDS011;8990;33.226;-97.150;2023-05-07T12:13:41;0.73;;;0.57;;
17739;SDS011;8990;33.226;-97.150;2023-05-07T12:16:12;0.77;;;0.73;;
17739;SDS011;8990;33.226;-97.150;2023-05-07T12:18:42;0.35;;;0.35;;
17739;SDS011;8990;33.226;-97.150;2023-05-07T12:21:11;0.73;;;0.73;;
17739;SDS011;8990;33.226;-97.150;2023-05-07T12:23:41;0.57;;;0.57;;
17739;SDS011;8990;33.226;-97.150;2023-05-07T12:26:10;0.20;;;0.20;;
17739;SDS011;8990;33.226;-97.150;2023-05-07T12:28:39;0.43;;;0.43;;
17739;SDS011;8990;33.226;-97.150;2023-05-07T12:31:08;2.17;;;0.65;;
17739;SDS011;8990;33.226;-97.150;2023-05-07T12:33:39;0.40;;;0.40;;
17739;SDS011;8990;33.226;-97.150;2023-05-07T12:36:08;0.93;;;0.82;;
17739;SDS011;8990;33.226;-97.150;2023-05-07T12:38:42;0.60;;;0.47;;
17739;SDS011;8990;33.226;-97.150;2023-05-07T12:41:11;1.85;;;1.48;;
17739;SDS011;8990;33.226;-97.150;2023-05-07T12:43:41;0.70;;;0.70;;
17739;SDS011;8990;33.226;-97.150;2023-05-07T12:46:13;0.85;;;0.50;;
17739;SDS011;8990;33.226;-97.150;2023-05-07T12:48:45;0.85;;;0.85;;
17739;SDS011;8990;33.226;-97.150;2023-05-07T12:51:15;4.00;;;1.08;;
17739;SDS011;8990;33.226;-97.150;2023-05-07T12:53:44;0.85;;;0.73;;
17739;SDS011;8990;33.226;-97.150;2023-05-07T12:56:15;0.70;;;0.70;;
17739;SDS011;8990;33.226;-97.150;2023-05-07T12:58:44;0.65;;;0.65;;
17739;SDS011;8990;33.226;-97.150;2023-05-07T13:01:12;0.82;;;0.82;;
17739;SDS011;8990;33.226;-97.150;2023-05-07T13:03:47;0.50;;;0.50;;
17739;SDS011;8990;33.226;-97.150;2023-05-07T13:06:18;0.70;;;0.70;;
17739;SDS011;8990;33.226;-97.150;2023-05-07T13:08:46;0.47;;;0.47;;
17739;SDS011;8990;33.226;-97.150;2023-05-07T13:11:16;0.28;;;0.28;;
17739;SDS011;8990;33.226;-97.150;2023-05-07T13:13:45;1.23;;;0.93;;
17739;SDS011;8990;33.226;-97.150;2023-05-07T13:16:14;0.60;;;0.60;;
17739;SDS011;8990;33.226;-97.150;2023-05-07T13:18:42;0.63;;;0.63;;
17739;SDS011;8990;33.226;-97.150;2023-05-07T13:21:13;0.75;;;0.75;;
17739;SDS011;8990;33.226;-97.150;2023-05-07T13:23:42;0.88;;;0.88;;
17739;SDS011;8990;33.226;-97.150;2023-05-07T13:26:11;0.73;;;0.73;;
17739;SDS011;8990;33.226;-97.150;2023-05-07T13:28:40;2.15;;;0.95;;
17739;SDS011;8990;33.226;-97.150;2023-05-07T13:31:09;1.33;;;1.20;;
17739;SDS011;8990;33.226;-97.150;2023-05-07T13:33:38;1.00;;;1.00;;
17739;SDS011;8990;33.226;-97.150;2023-05-07T13:36:07;1.27;;;0.98;;
17739;SDS011;8990;33.226;-97.150;2023-05-07T13:38:38;6.40;;;1.35;;
17739;SDS011;8990;33.226;-97.150;2023-05-07T13:41:07;3.75;;;1.55;;
17739;SDS011;8990;33.226;-97.150;2023-05-07T13:43:36;0.73;;;0.30;;
17739;SDS011;8990;33.226;-97.150;2023-05-07T13:46:05;9.13;;;2.13;;
17739;SDS011;8990;33.226;-97.150;2023-05-07T13:48:34;0.45;;;0.45;;
17739;SDS011;8990;33.226;-97.150;2023-05-07T13:51:03;1.92;;;0.98;;
17739;SDS011;8990;33.226;-97.150;2023-05-07T13:53:32;1.23;;;1.08;;
17739;SDS011;8990;33.226;-97.150;2023-05-07T13:56:04;0.55;;;0.55;;
17739;SDS011;8990;33.226;-97.150;2023-05-07T13:58:33;1.63;;;0.93;;
17739;SDS011;8990;33.226;-97.150;2023-05-07T14:01:02;1.17;;;1.08;;
17739;SDS011;8990;33.226;-97.150;2023-05-07T14:03:31;3.88;;;1.45;;
17739;SDS011;8990;33.226;-97.150;2023-05-07T14:06:00;1.02;;;1.02;;
17739;SDS011;8990;33.226;-97.150;2023-05-07T14:08:29;1.13;;;0.93;;
17739;SDS011;8990;33.226;-97.150;2023-05-07T14:10:58;3.42;;;1.55;;
17739;SDS011;8990;33.226;-97.150;2023-05-07T14:13:29;0.50;;;0.50;;
17739;SDS011;8990;33.226;-97.150;2023-05-07T14:15:58;0.52;;;0.52;;
17739;SDS011;8990;33.226;-97.150;2023-05-07T14:18:26;1.65;;;1.55;;
17739;SDS011;8990;33.226;-97.150;2023-05-07T14:20:56;1.23;;;1.13;;
17739;SDS011;8990;33.226;-97.150;2023-05-07T14:23:25;0.70;;;0.70;;
17739;SDS011;8990;33.226;-97.150;2023-05-07T14:25:54;1.63;;;1.52;;
17739;SDS011;8990;33.226;-97.150;2023-05-07T14:28:23;1.27;;;0.90;;
17739;SDS011;8990;33.226;-97.150;2023-05-07T14:30:53;1.85;;;1.10;;
17739;SDS011;8990;33.226;-97.150;2023-05-07T14:33:22;0.05;;;0.05;;
17739;SDS011;8990;33.226;-97.150;2023-05-07T14:35:51;0.65;;;0.55;;
17739;SDS011;8990;33.226;-97.150;2023-05-07T14:38:20;0.65;;;0.65;;
17739;SDS011;8990;33.226;-97.150;2023-05-07T14:40:48;0.90;;;0.90;;
17739;SDS011;8990;33.226;-97.150;2023-05-07T14:43:18;8.00;;;1.30;;
17739;SDS011;8990;33.226;-97.150;2023-05-07T14:45:48;1.95;;;1.73;;
17739;SDS011;8990;33.226;-97.150;2023-05-07T14:48:18;0.90;;;0.90;;
17739;SDS011;8990;33.226;-97.150;2023-05-07T14:50:47;0.47;;;0.47;;
17739;SDS011;8990;33.226;-97.150;2023-05-07T14:53:17;1.25;;;0.90;;
17739;SDS011;8990;33.226;-97.150;2023-05-07T14:55:46;0.70;;;0.70;;
17739;SDS011;8990;33.226;-97.150;2023-05-07T14:58:15;1.52;;;1.42;;
17739;SDS011;8990;33.226;-97.150;2023-05-07T15:00:44;1.13;;;1.13;;
17739;SDS011;8990;33.226;-97.150;2023-05-07T15:03:13;0.98;;;0.98;;
17739;SDS011;8990;33.226;-97.150;2023-05-07T15:05:46;0.80;;;0.80;;
17739;SDS011;8990;33.226;-97.150;2023-05-07T15:08:17;10.18;;;2.05;;
17739;SDS011;8990;33.226;-97.150;2023-05-07T15:10:46;2.75;;;1.83;;
17739;SDS011;8990;33.226;-97.150;2023-05-07T15:13:14;1.63;;;1.13;;